sensor_id;sensor_type;location;lat;lon;timestamp;P1;durP1;ratioP1;P2;durP2;ratioP2
6027;SDS011;3042;43.194;27.646;2024-03-17T00:00:50;112.87;;;46.90;;
6027;SDS011;3042;43.194;27.646;2024-03-17T00:03:19;72.87;;;43.30;;
6027;SDS011;3042;43.194;27.646;2024-03-17T00:05:45;77.13;;;47.10;;
6027;SDS011;3042;43.194;27.646;2024-03-17T00:08:14;61.80;;;41.40;;
6027;SDS011;3042;43.194;27.646;2024-03-17T00:10:40;84.50;;;43.23;;
6027;SDS011;3042;43.194;27.646;2024-03-17T00:13:08;92.87;;;42.70;;
6027;SDS011;3042;43.194;27.646;2024-03-17T00:15:34;80.57;;;42.50;;
6027;SDS011;3042;43.194;27.646;2024-03-17T00:18:01;45.57;;;39.53;;
6027;SDS011;3042;43.194;27.646;2024-03-17T00:20:27;52.13;;;40.27;;
6027;SDS011;3042;43.194;27.646;2024-03-17T00:22:55;54.85;;;43.50;;
6027;SDS011;3042;43.194;27.646;2024-03-17T00:25:23;55.03;;;42.17;;
6027;SDS011;3042;43.194;27.646;2024-03-17T00:27:50;51.23;;;40.20;;
6027;SDS011;3042;43.194;27.646;2024-03-17T00:30:20;55.33;;;41.40;;
6027;SDS011;3042;43.194;27.646;2024-03-17T00:32:47;45.30;;;38.83;;
6027;SDS011;3042;43.194;27.646;2024-03-17T00:35:13;60.63;;;41.33;;
6027;SDS011;3042;43.194;27.646;2024-03-17T00:37:45;54.77;;;40.67;;
6027;SDS011;3042;43.194;27.646;2024-03-17T00:40:12;48.20;;;39.80;;
6027;SDS011;3042;43.194;27.646;2024-03-17T00:42:40;62.40;;;38.60;;
6027;SDS011;3042;43.194;27.646;2024-03-17T00:45:07;48.00;;;36.87;;
6027;SDS011;3042;43.194;27.646;2024-03-17T00:47:35;66.83;;;44.80;;
6027;SDS011;3042;43.194;27.646;2024-03-17T00:50:02;40.23;;;35.93;;
6027;SDS011;3042;43.194;27.646;2024-03-17T00:52:31;37.23;;;33.43;;
6027;SDS011;3042;43.194;27.646;2024-03-17T00:54:58;41.37;;;37.37;;
6027;SDS011;3042;43.194;27.646;2024-03-17T00:57:26;44.17;;;39.63;;
6027;SDS011;3042;43.194;27.646;2024-03-17T00:59:56;42.00;;;37.80;;
6027;SDS011;3042;43.194;27.646;2024-03-17T01:02:23;40.40;;;36.83;;
6027;SDS011;3042;43.194;27.646;2024-03-17T01:04:49;43.27;;;38.83;;
6027;SDS011;3042;43.194;27.646;2024-03-17T01:07:16;63.03;;;38.63;;
6027;SDS011;3042;43.194;27.646;2024-03-17T01:09:42;38.57;;;34.80;;
6027;SDS011;3042;43.194;27.646;2024-03-17T01:12:09;75.63;;;39.63;;
6027;SDS011;3042;43.194;27.646;2024-03-17T01:14:36;75.40;;;41.50;;
6027;SDS011;3042;43.194;27.646;2024-03-17T01:17:04;100.53;;;39.10;;
6027;SDS011;3042;43.194;27.646;2024-03-17T01:19:31;83.00;;;42.70;;
6027;SDS011;3042;43.194;27.646;2024-03-17T01:21:59;45.43;;;40.37;;
6027;SDS011;3042;43.194;27.646;2024-03-17T01:24:26;49.00;;;43.43;;
6027;SDS011;3042;43.194;27.646;2024-03-17T01:26:56;47.50;;;41.13;;
6027;SDS011;3042;43.194;27.646;2024-03-17T01:29:23;61.47;;;37.83;;
6027;SDS011;3042;43.194;27.646;2024-03-17T01:31:50;61.47;;;36.60;;
6027;SDS011;3042;43.194;27.646;2024-03-17T01:34:18;62.27;;;40.33;;
6027;SDS011;3042;43.194;27.646;2024-03-17T01:36:45;46.13;;;41.20;;
6027;SDS011;3042;43.194;27.646;2024-03-17T01:39:11;51.40;;;39.67;;
6027;SDS011;3042;43.194;27.646;2024-03-17T01:41:39;50.80;;;41.67;;
6027;SDS011;3042;43.194;27.646;2024-03-17T01:44:05;47.97;;;41.60;;
6027;SDS011;3042;43.194;27.646;2024-03-17T01:46:33;63.30;;;40.40;;
6027;SDS011;3042;43.194;27.646;2024-03-17T01:49:00;43.97;;;37.60;;
6027;SDS011;3042;43.194;27.646;2024-03-17T01:51:31;41.70;;;37.63;;
6027;SDS011;3042;43.194;27.646;2024-03-17T01:53:57;45.17;;;40.30;;
6027;SDS011;3042;43.194;27.646;2024-03-17T01:56:25;46.90;;;37.70;;
6027;SDS011;3042;43.194;27.646;2024-03-17T01:58:51;42.60;;;37.57;;
6027;SDS011;3042;43.194;27.646;2024-03-17T02:01:19;53.20;;;39.10;;
6027;SDS011;3042;43.194;27.646;2024-03-17T02:03:45;44.30;;;39.60;;
6027;SDS011;3042;43.194;27.646;2024-03-17T02:06:12;61.93;;;39.77;;
6027;SDS011;3042;43.194;27.646;2024-03-17T02:08:50;69.87;;;35.60;;
6027;SDS011;3042;43.194;27.646;2024-03-17T02:11:28;46.93;;;40.20;;
6027;SDS011;3042;43.194;27.646;2024-03-17T02:13:56;45.33;;;37.60;;
6027;SDS011;3042;43.194;27.646;2024-03-17T02:16:24;61.77;;;37.53;;
6027;SDS011;3042;43.194;27.646;2024-03-17T02:18:53;64.93;;;39.50;;
6027;SDS011;3042;43.194;27.646;2024-03-17T02:21:21;93.97;;;37.97;;
6027;SDS011;3042;43.194;27.646;2024-03-17T02:23:50;53.43;;;39.77;;
6027;SDS011;3042;43.194;27.646;2024-03-17T02:26:17;55.97;;;39.40;;
6027;SDS011;3042;43.194;27.646;2024-03-17T02:28:45;56.90;;;39.27;;
6027;SDS011;3042;43.194;27.646;2024-03-17T02:31:14;54.77;;;39.07;;
6027;SDS011;3042;43.194;27.646;2024-03-17T02:33:42;47.13;;;42.00;;
6027;SDS011;3042;43.194;27.646;2024-03-17T02:36:10;42.10;;;37.43;;
6027;SDS011;3042;43.194;27.646;2024-03-17T02:38:37;41.30;;;37.30;;
6027;SDS011;3042;43.194;27.646;2024-03-17T02:41:24;39.70;;;35.57;;
6027;SDS011;3042;43.194;27.646;2024-03-17T02:43:51;36.83;;;33.00;;
6027;SDS011;3042;43.194;27.646;2024-03-17T02:46:18;32.17;;;29.03;;
6027;SDS011;3042;43.194;27.646;2024-03-17T02:48:46;36.20;;;32.70;;
6027;SDS011;3042;43.194;27.646;2024-03-17T02:51:14;44.30;;;35.87;;
6027;SDS011;3042;43.194;27.646;2024-03-17T02:53:43;37.23;;;33.67;;
6027;SDS011;3042;43.194;27.646;2024-03-17T02:56:11;39.03;;;33.00;;
6027;SDS011;3042;43.194;27.646;2024-03-17T02:58:43;52.03;;;36.33;;
6027;SDS011;3042;43.194;27.646;2024-03-17T03:01:11;40.37;;;35.93;;
6027;SDS011;3042;43.194;27.646;2024-03-17T03:03:40;50.40;;;36.00;;
6027;SDS011;3042;43.194;27.646;2024-03-17T03:06:06;38.97;;;35.37;;
6027;SDS011;3042;43.194;27.646;2024-03-17T03:08:37;37.67;;;33.77;;
6027;SDS011;3042;43.194;27.646;2024-03-17T03:11:05;62.47;;;36.83;;
6027;SDS011;3042;43.194;27.646;2024-03-17T03:13:36;42.03;;;35.17;;
6027;SDS011;3042;43.194;27.646;2024-03-17T03:16:06;39.53;;;29.67;;
6027;SDS011;3042;43.194;27.646;2024-03-17T03:18:34;49.53;;;38.73;;
6027;SDS011;3042;43.194;27.646;2024-03-17T03:21:02;55.53;;;37.77;;
6027;SDS011;3042;43.194;27.646;2024-03-17T03:23:30;52.97;;;37.50;;
6027;SDS011;3042;43.194;27.646;2024-03-17T03:25:58;38.87;;;34.67;;
6027;SDS011;3042;43.194;27.646;2024-03-17T03:28:28;46.50;;;36.80;;
6027;SDS011;3042;43.194;27.646;2024-03-17T03:30:56;46.77;;;36.37;;
6027;SDS011;3042;43.194;27.646;2024-03-17T03:33:25;44.17;;;36.70;;
6027;SDS011;3042;43.194;27.646;2024-03-17T03:35:52;56.13;;;39.37;;
6027;SDS011;3042;43.194;27.646;2024-03-17T03:38:20;50.93;;;39.17;;
6027;SDS011;3042;43.194;27.646;2024-03-17T03:40:48;53.20;;;40.60;;
6027;SDS011;3042;43.194;27.646;2024-03-17T03:43:16;70.40;;;39.80;;
6027;SDS011;3042;43.194;27.646;2024-03-17T03:45:43;82.77;;;41.80;;
6027;SDS011;3042;43.194;27.646;2024-03-17T03:48:10;59.97;;;40.43;;
6027;SDS011;3042;43.194;27.646;2024-03-17T03:50:39;168.70;;;43.53;;
6027;SDS011;3042;43.194;27.646;2024-03-17T03:53:07;181.87;;;45.23;;
6027;SDS011;3042;43.194;27.646;2024-03-17T03:55:34;242.50;;;48.37;;
6027;SDS011;3042;43.194;27.646;2024-03-17T03:58:01;287.80;;;50.33;;
6027;SDS011;3042;43.194;27.646;2024-03-17T04:00:29;278.57;;;49.47;;
6027;SDS011;3042;43.194;27.646;2024-03-17T04:02:57;214.30;;;56.47;;
6027;SDS011;3042;43.194;27.646;2024-03-17T04:05:27;176.77;;;57.42;;
6027;SDS011;3042;43.194;27.646;2024-03-17T04:07:56;196.80;;;51.60;;
6027;SDS011;3042;43.194;27.646;2024-03-17T04:10:24;217.23;;;56.40;;
6027;SDS011;3042;43.194;27.646;2024-03-17T04:12:51;230.40;;;51.80;;
6027;SDS011;3042;43.194;27.646;2024-03-17T04:15:19;205.63;;;51.57;;
6027;SDS011;3042;43.194;27.646;2024-03-17T04:17:46;234.00;;;54.77;;
6027;SDS011;3042;43.194;27.646;2024-03-17T04:20:14;257.93;;;58.47;;
6027;SDS011;3042;43.194;27.646;2024-03-17T04:22:42;197.17;;;49.03;;
6027;SDS011;3042;43.194;27.646;2024-03-17T04:25:11;276.70;;;51.87;;
6027;SDS011;3042;43.194;27.646;2024-03-17T04:27:39;305.33;;;53.43;;
6027;SDS011;3042;43.194;27.646;2024-03-17T04:30:07;212.53;;;49.50;;
6027;SDS011;3042;43.194;27.646;2024-03-17T04:32:37;207.20;;;47.93;;
6027;SDS011;3042;43.194;27.646;2024-03-17T04:35:03;231.67;;;51.73;;
6027;SDS011;3042;43.194;27.646;2024-03-17T04:37:32;190.67;;;54.87;;
6027;SDS011;3042;43.194;27.646;2024-03-17T04:40:04;215.93;;;52.30;;
6027;SDS011;3042;43.194;27.646;2024-03-17T04:42:36;332.07;;;60.33;;
6027;SDS011;3042;43.194;27.646;2024-03-17T04:45:06;346.70;;;61.37;;
6027;SDS011;3042;43.194;27.646;2024-03-17T04:47:35;308.23;;;61.57;;
6027;SDS011;3042;43.194;27.646;2024-03-17T04:50:04;368.93;;;74.30;;
6027;SDS011;3042;43.194;27.646;2024-03-17T04:52:31;450.90;;;74.13;;
6027;SDS011;3042;43.194;27.646;2024-03-17T04:54:59;504.57;;;75.90;;
6027;SDS011;3042;43.194;27.646;2024-03-17T04:57:26;505.43;;;80.33;;
6027;SDS011;3042;43.194;27.646;2024-03-17T04:59:55;548.83;;;97.47;;
6027;SDS011;3042;43.194;27.646;2024-03-17T05:02:22;513.93;;;100.27;;
6027;SDS011;3042;43.194;27.646;2024-03-17T05:04:51;496.83;;;96.30;;
6027;SDS011;3042;43.194;27.646;2024-03-17T05:07:18;493.30;;;92.60;;
6027;SDS011;3042;43.194;27.646;2024-03-17T05:09:45;477.80;;;86.20;;
6027;SDS011;3042;43.194;27.646;2024-03-17T05:12:13;505.17;;;88.27;;
6027;SDS011;3042;43.194;27.646;2024-03-17T05:14:40;499.10;;;88.97;;
6027;SDS011;3042;43.194;27.646;2024-03-17T05:17:09;520.10;;;86.87;;
6027;SDS011;3042;43.194;27.646;2024-03-17T05:19:36;535.03;;;114.63;;
6027;SDS011;3042;43.194;27.646;2024-03-17T05:22:03;453.40;;;90.03;;
6027;SDS011;3042;43.194;27.646;2024-03-17T05:24:30;453.83;;;91.07;;
6027;SDS011;3042;43.194;27.646;2024-03-17T05:26:58;472.93;;;98.80;;
6027;SDS011;3042;43.194;27.646;2024-03-17T05:29:25;402.43;;;72.60;;
6027;SDS011;3042;43.194;27.646;2024-03-17T05:31:52;242.30;;;65.50;;
6027;SDS011;3042;43.194;27.646;2024-03-17T05:34:21;225.13;;;56.50;;
6027;SDS011;3042;43.194;27.646;2024-03-17T05:36:49;398.27;;;80.03;;
6027;SDS011;3042;43.194;27.646;2024-03-17T05:39:17;388.23;;;80.87;;
6027;SDS011;3042;43.194;27.646;2024-03-17T05:41:45;347.53;;;78.73;;
6027;SDS011;3042;43.194;27.646;2024-03-17T05:44:14;318.47;;;65.83;;
6027;SDS011;3042;43.194;27.646;2024-03-17T05:46:41;322.00;;;60.97;;
6027;SDS011;3042;43.194;27.646;2024-03-17T05:49:08;313.70;;;62.70;;
6027;SDS011;3042;43.194;27.646;2024-03-17T05:51:37;252.37;;;61.07;;
6027;SDS011;3042;43.194;27.646;2024-03-17T05:54:04;279.13;;;61.10;;
6027;SDS011;3042;43.194;27.646;2024-03-17T05:56:31;284.50;;;69.63;;
6027;SDS011;3042;43.194;27.646;2024-03-17T05:59:00;270.80;;;69.77;;
6027;SDS011;3042;43.194;27.646;2024-03-17T06:01:28;249.03;;;67.37;;
6027;SDS011;3042;43.194;27.646;2024-03-17T06:03:55;279.07;;;64.07;;
6027;SDS011;3042;43.194;27.646;2024-03-17T06:06:22;260.77;;;67.80;;
6027;SDS011;3042;43.194;27.646;2024-03-17T06:08:51;202.47;;;67.20;;
6027;SDS011;3042;43.194;27.646;2024-03-17T06:11:18;229.67;;;67.07;;
6027;SDS011;3042;43.194;27.646;2024-03-17T06:13:46;286.03;;;72.67;;
6027;SDS011;3042;43.194;27.646;2024-03-17T06:16:13;190.80;;;61.70;;
6027;SDS011;3042;43.194;27.646;2024-03-17T06:18:40;249.63;;;73.97;;
6027;SDS011;3042;43.194;27.646;2024-03-17T06:21:07;253.10;;;62.80;;
6027;SDS011;3042;43.194;27.646;2024-03-17T06:23:35;238.50;;;61.63;;
6027;SDS011;3042;43.194;27.646;2024-03-17T06:26:03;216.83;;;61.00;;
6027;SDS011;3042;43.194;27.646;2024-03-17T06:28:32;245.37;;;65.07;;
6027;SDS011;3042;43.194;27.646;2024-03-17T06:30:59;206.20;;;68.03;;
6027;SDS011;3042;43.194;27.646;2024-03-17T06:33:29;195.20;;;68.53;;
6027;SDS011;3042;43.194;27.646;2024-03-17T06:35:57;320.77;;;71.33;;
6027;SDS011;3042;43.194;27.646;2024-03-17T06:38:24;200.23;;;66.70;;
6027;SDS011;3042;43.194;27.646;2024-03-17T06:40:52;278.13;;;70.40;;
6027;SDS011;3042;43.194;27.646;2024-03-17T06:43:20;185.97;;;73.17;;
6027;SDS011;3042;43.194;27.646;2024-03-17T06:45:54;312.37;;;76.17;;
6027;SDS011;3042;43.194;27.646;2024-03-17T06:48:22;218.40;;;74.20;;
6027;SDS011;3042;43.194;27.646;2024-03-17T06:50:49;268.63;;;71.47;;
6027;SDS011;3042;43.194;27.646;2024-03-17T06:53:19;270.40;;;74.77;;
6027;SDS011;3042;43.194;27.646;2024-03-17T06:55:56;283.07;;;77.33;;
6027;SDS011;3042;43.194;27.646;2024-03-17T06:58:26;292.57;;;84.37;;
6027;SDS011;3042;43.194;27.646;2024-03-17T07:00:55;284.73;;;79.97;;
6027;SDS011;3042;43.194;27.646;2024-03-17T07:03:24;358.20;;;88.27;;
6027;SDS011;3042;43.194;27.646;2024-03-17T07:05:55;232.53;;;81.37;;
6027;SDS011;3042;43.194;27.646;2024-03-17T07:08:24;272.90;;;82.17;;
6027;SDS011;3042;43.194;27.646;2024-03-17T07:10:59;224.93;;;76.27;;
6027;SDS011;3042;43.194;27.646;2024-03-17T07:13:30;245.67;;;87.60;;
6027;SDS011;3042;43.194;27.646;2024-03-17T07:15:58;240.20;;;87.73;;
6027;SDS011;3042;43.194;27.646;2024-03-17T07:18:27;211.53;;;87.33;;
6027;SDS011;3042;43.194;27.646;2024-03-17T07:20:56;238.80;;;96.77;;
6027;SDS011;3042;43.194;27.646;2024-03-17T07:23:24;214.43;;;105.43;;
6027;SDS011;3042;43.194;27.646;2024-03-17T07:25:51;272.97;;;96.37;;
6027;SDS011;3042;43.194;27.646;2024-03-17T07:28:20;248.23;;;93.27;;
6027;SDS011;3042;43.194;27.646;2024-03-17T07:30:49;205.97;;;105.20;;
6027;SDS011;3042;43.194;27.646;2024-03-17T07:33:18;236.10;;;121.13;;
6027;SDS011;3042;43.194;27.646;2024-03-17T07:35:47;276.43;;;149.67;;
6027;SDS011;3042;43.194;27.646;2024-03-17T07:38:15;262.00;;;146.37;;
6027;SDS011;3042;43.194;27.646;2024-03-17T07:40:42;277.47;;;142.00;;
6027;SDS011;3042;43.194;27.646;2024-03-17T07:43:10;284.30;;;137.70;;
6027;SDS011;3042;43.194;27.646;2024-03-17T07:45:38;255.73;;;143.77;;
6027;SDS011;3042;43.194;27.646;2024-03-17T07:48:07;297.13;;;138.47;;
6027;SDS011;3042;43.194;27.646;2024-03-17T07:50:34;229.90;;;129.40;;
6027;SDS011;3042;43.194;27.646;2024-03-17T07:53:02;236.43;;;129.70;;
6027;SDS011;3042;43.194;27.646;2024-03-17T07:55:29;208.33;;;118.90;;
6027;SDS011;3042;43.194;27.646;2024-03-17T07:57:56;257.80;;;129.17;;
6027;SDS011;3042;43.194;27.646;2024-03-17T08:00:24;247.50;;;130.80;;
6027;SDS011;3042;43.194;27.646;2024-03-17T08:02:51;166.50;;;93.90;;
6027;SDS011;3042;43.194;27.646;2024-03-17T08:05:20;158.33;;;93.80;;
6027;SDS011;3042;43.194;27.646;2024-03-17T08:07:48;155.30;;;97.37;;
6027;SDS011;3042;43.194;27.646;2024-03-17T08:10:15;170.07;;;90.43;;
6027;SDS011;3042;43.194;27.646;2024-03-17T08:12:43;129.47;;;76.87;;
6027;SDS011;3042;43.194;27.646;2024-03-17T08:15:10;120.20;;;69.87;;
6027;SDS011;3042;43.194;27.646;2024-03-17T08:17:38;114.93;;;67.47;;
6027;SDS011;3042;43.194;27.646;2024-03-17T08:20:05;109.33;;;65.07;;
6027;SDS011;3042;43.194;27.646;2024-03-17T08:22:35;112.60;;;68.33;;
6027;SDS011;3042;43.194;27.646;2024-03-17T08:25:02;111.13;;;66.30;;
6027;SDS011;3042;43.194;27.646;2024-03-17T08:27:30;106.93;;;63.77;;
6027;SDS011;3042;43.194;27.646;2024-03-17T08:29:58;121.43;;;74.53;;
6027;SDS011;3042;43.194;27.646;2024-03-17T08:32:25;121.43;;;53.83;;
6027;SDS011;3042;43.194;27.646;2024-03-17T08:34:52;94.53;;;52.03;;
6027;SDS011;3042;43.194;27.646;2024-03-17T08:37:20;87.90;;;53.20;;
6027;SDS011;3042;43.194;27.646;2024-03-17T08:39:52;76.37;;;51.47;;
6027;SDS011;3042;43.194;27.646;2024-03-17T08:42:19;81.63;;;50.97;;
6027;SDS011;3042;43.194;27.646;2024-03-17T08:44:46;77.83;;;57.70;;
6027;SDS011;3042;43.194;27.646;2024-03-17T08:47:14;122.37;;;51.67;;
6027;SDS011;3042;43.194;27.646;2024-03-17T08:49:41;58.07;;;44.27;;
6027;SDS011;3042;43.194;27.646;2024-03-17T08:52:08;63.03;;;46.20;;
6027;SDS011;3042;43.194;27.646;2024-03-17T08:54:35;66.70;;;50.53;;
6027;SDS011;3042;43.194;27.646;2024-03-17T08:57:04;80.33;;;50.00;;
6027;SDS011;3042;43.194;27.646;2024-03-17T08:59:32;73.03;;;49.70;;
6027;SDS011;3042;43.194;27.646;2024-03-17T09:01:59;84.73;;;57.80;;
6027;SDS011;3042;43.194;27.646;2024-03-17T09:04:26;98.90;;;65.73;;
6027;SDS011;3042;43.194;27.646;2024-03-17T09:06:53;66.40;;;43.40;;
6027;SDS011;3042;43.194;27.646;2024-03-17T09:09:21;88.20;;;51.13;;
6027;SDS011;3042;43.194;27.646;2024-03-17T09:11:48;128.43;;;84.27;;
6027;SDS011;3042;43.194;27.646;2024-03-17T09:14:18;101.27;;;68.77;;
6027;SDS011;3042;43.194;27.646;2024-03-17T09:16:47;119.00;;;82.73;;
6027;SDS011;3042;43.194;27.646;2024-03-17T09:19:14;185.33;;;83.97;;
6027;SDS011;3042;43.194;27.646;2024-03-17T09:21:41;73.57;;;53.03;;
6027;SDS011;3042;43.194;27.646;2024-03-17T09:24:10;100.53;;;62.27;;
6027;SDS011;3042;43.194;27.646;2024-03-17T09:26:37;47.07;;;36.53;;
6027;SDS011;3042;43.194;27.646;2024-03-17T09:29:07;42.83;;;37.72;;
6027;SDS011;3042;43.194;27.646;2024-03-17T09:31:36;34.87;;;31.00;;
6027;SDS011;3042;43.194;27.646;2024-03-17T09:34:05;82.07;;;34.57;;
6027;SDS011;3042;43.194;27.646;2024-03-17T09:36:32;52.70;;;34.00;;
6027;SDS011;3042;43.194;27.646;2024-03-17T09:38:59;49.03;;;32.30;;
6027;SDS011;3042;43.194;27.646;2024-03-17T09:41:29;32.23;;;28.50;;
6027;SDS011;3042;43.194;27.646;2024-03-17T09:43:57;54.23;;;30.93;;
6027;SDS011;3042;43.194;27.646;2024-03-17T09:46:25;41.37;;;32.03;;
6027;SDS011;3042;43.194;27.646;2024-03-17T09:48:55;31.83;;;28.50;;
6027;SDS011;3042;43.194;27.646;2024-03-17T09:51:24;30.93;;;27.90;;
6027;SDS011;3042;43.194;27.646;2024-03-17T09:53:52;33.53;;;29.80;;
6027;SDS011;3042;43.194;27.646;2024-03-17T09:56:20;34.33;;;27.10;;
6027;SDS011;3042;43.194;27.646;2024-03-17T09:58:47;30.47;;;27.50;;
6027;SDS011;3042;43.194;27.646;2024-03-17T10:01:16;35.40;;;29.67;;
6027;SDS011;3042;43.194;27.646;2024-03-17T10:03:44;50.60;;;29.60;;
6027;SDS011;3042;43.194;27.646;2024-03-17T10:06:18;31.53;;;28.27;;
6027;SDS011;3042;43.194;27.646;2024-03-17T10:08:46;45.50;;;33.47;;
6027;SDS011;3042;43.194;27.646;2024-03-17T10:11:15;40.43;;;31.13;;
6027;SDS011;3042;43.194;27.646;2024-03-17T10:13:44;31.27;;;28.03;;
6027;SDS011;3042;43.194;27.646;2024-03-17T10:16:22;39.17;;;33.30;;
6027;SDS011;3042;43.194;27.646;2024-03-17T10:18:51;45.93;;;36.23;;
6027;SDS011;3042;43.194;27.646;2024-03-17T10:21:33;33.57;;;30.03;;
6027;SDS011;3042;43.194;27.646;2024-03-17T10:24:07;32.43;;;29.23;;
6027;SDS011;3042;43.194;27.646;2024-03-17T10:26:40;31.37;;;28.20;;
6027;SDS011;3042;43.194;27.646;2024-03-17T10:29:19;34.42;;;30.83;;
6027;SDS011;3042;43.194;27.646;2024-03-17T10:31:50;33.67;;;30.57;;
6027;SDS011;3042;43.194;27.646;2024-03-17T10:34:18;34.77;;;31.17;;
6027;SDS011;3042;43.194;27.646;2024-03-17T10:36:51;27.90;;;25.20;;
6027;SDS011;3042;43.194;27.646;2024-03-17T10:39:25;28.23;;;25.50;;
6027;SDS011;3042;43.194;27.646;2024-03-17T10:41:59;28.60;;;25.80;;
6027;SDS011;3042;43.194;27.646;2024-03-17T10:44:27;26.70;;;24.20;;
6027;SDS011;3042;43.194;27.646;2024-03-17T10:46:56;27.53;;;24.83;;
6027;SDS011;3042;43.194;27.646;2024-03-17T10:49:25;28.30;;;25.50;;
6027;SDS011;3042;43.194;27.646;2024-03-17T10:52:00;28.87;;;24.97;;
6027;SDS011;3042;43.194;27.646;2024-03-17T10:54:30;26.50;;;24.30;;
6027;SDS011;3042;43.194;27.646;2024-03-17T10:57:02;26.30;;;23.73;;
6027;SDS011;3042;43.194;27.646;2024-03-17T10:59:46;28.33;;;25.80;;
6027;SDS011;3042;43.194;27.646;2024-03-17T11:02:17;27.05;;;24.60;;
6027;SDS011;3042;43.194;27.646;2024-03-17T11:04:50;53.93;;;29.20;;
6027;SDS011;3042;43.194;27.646;2024-03-17T11:07:20;27.77;;;25.13;;
6027;SDS011;3042;43.194;27.646;2024-03-17T11:09:49;29.50;;;26.80;;
6027;SDS011;3042;43.194;27.646;2024-03-17T11:15:37;35.10;;;26.87;;
6027;SDS011;3042;43.194;27.646;2024-03-17T11:21:00;52.40;;;28.30;;
6027;SDS011;3042;43.194;27.646;2024-03-17T11:23:34;30.97;;;26.83;;
6027;SDS011;3042;43.194;27.646;2024-03-17T11:26:04;75.27;;;29.73;;
6027;SDS011;3042;43.194;27.646;2024-03-17T11:28:47;44.47;;;25.70;;
6027;SDS011;3042;43.194;27.646;2024-03-17T11:36:53;36.90;;;24.27;;
6027;SDS011;3042;43.194;27.646;2024-03-17T11:39:23;48.60;;;28.40;;
6027;SDS011;3042;43.194;27.646;2024-03-17T11:42:20;57.53;;;28.10;;
6027;SDS011;3042;43.194;27.646;2024-03-17T11:44:56;39.20;;;25.63;;
6027;SDS011;3042;43.194;27.646;2024-03-17T11:47:23;37.47;;;25.80;;
6027;SDS011;3042;43.194;27.646;2024-03-17T11:50:01;47.77;;;30.60;;
6027;SDS011;3042;43.194;27.646;2024-03-17T11:52:30;31.97;;;27.73;;
6027;SDS011;3042;43.194;27.646;2024-03-17T11:54:59;39.67;;;25.20;;
6027;SDS011;3042;43.194;27.646;2024-03-17T11:57:25;47.77;;;25.20;;
6027;SDS011;3042;43.194;27.646;2024-03-17T11:59:54;27.73;;;24.30;;
6027;SDS011;3042;43.194;27.646;2024-03-17T12:02:22;38.90;;;25.30;;
6027;SDS011;3042;43.194;27.646;2024-03-17T12:04:51;26.13;;;23.37;;
6027;SDS011;3042;43.194;27.646;2024-03-17T12:07:18;31.57;;;24.53;;
6027;SDS011;3042;43.194;27.646;2024-03-17T12:09:48;26.90;;;24.20;;
6027;SDS011;3042;43.194;27.646;2024-03-17T12:12:17;24.87;;;22.47;;
6027;SDS011;3042;43.194;27.646;2024-03-17T12:14:46;86.53;;;27.10;;
6027;SDS011;3042;43.194;27.646;2024-03-17T12:17:14;26.60;;;23.87;;
6027;SDS011;3042;43.194;27.646;2024-03-17T12:19:45;28.90;;;23.33;;
6027;SDS011;3042;43.194;27.646;2024-03-17T12:22:15;45.10;;;26.95;;
6027;SDS011;3042;43.194;27.646;2024-03-17T12:24:44;24.90;;;22.67;;
6027;SDS011;3042;43.194;27.646;2024-03-17T12:27:16;25.87;;;23.47;;
6027;SDS011;3042;43.194;27.646;2024-03-17T12:29:46;37.73;;;23.67;;
6027;SDS011;3042;43.194;27.646;2024-03-17T12:32:14;67.27;;;26.20;;
6027;SDS011;3042;43.194;27.646;2024-03-17T12:34:42;33.70;;;23.03;;
6027;SDS011;3042;43.194;27.646;2024-03-17T12:37:13;26.73;;;20.53;;
6027;SDS011;3042;43.194;27.646;2024-03-17T12:39:42;21.73;;;19.80;;
6027;SDS011;3042;43.194;27.646;2024-03-17T12:42:09;22.37;;;20.17;;
6027;SDS011;3042;43.194;27.646;2024-03-17T12:44:40;31.17;;;22.93;;
6027;SDS011;3042;43.194;27.646;2024-03-17T12:47:14;68.43;;;27.53;;
6027;SDS011;3042;43.194;27.646;2024-03-17T12:49:44;30.80;;;21.03;;
6027;SDS011;3042;43.194;27.646;2024-03-17T12:52:19;41.43;;;24.37;;
6027;SDS011;3042;43.194;27.646;2024-03-17T12:54:56;36.77;;;22.00;;
6027;SDS011;3042;43.194;27.646;2024-03-17T12:57:47;33.53;;;23.43;;
6027;SDS011;3042;43.194;27.646;2024-03-17T13:00:33;26.90;;;21.33;;
6027;SDS011;3042;43.194;27.646;2024-03-17T13:03:01;59.80;;;27.00;;
6027;SDS011;3042;43.194;27.646;2024-03-17T13:05:30;29.87;;;22.70;;
6027;SDS011;3042;43.194;27.646;2024-03-17T13:07:58;26.27;;;23.37;;
6027;SDS011;3042;43.194;27.646;2024-03-17T13:10:26;80.70;;;24.90;;
6027;SDS011;3042;43.194;27.646;2024-03-17T13:12:59;45.80;;;24.57;;
6027;SDS011;3042;43.194;27.646;2024-03-17T13:15:28;25.03;;;21.07;;
6027;SDS011;3042;43.194;27.646;2024-03-17T13:17:58;48.57;;;24.20;;
6027;SDS011;3042;43.194;27.646;2024-03-17T13:20:26;32.60;;;22.73;;
6027;SDS011;3042;43.194;27.646;2024-03-17T13:22:54;25.97;;;22.20;;
6027;SDS011;3042;43.194;27.646;2024-03-17T13:25:23;24.07;;;20.50;;
6027;SDS011;3042;43.194;27.646;2024-03-17T13:27:55;22.40;;;20.53;;
6027;SDS011;3042;43.194;27.646;2024-03-17T13:30:24;35.43;;;21.33;;
6027;SDS011;3042;43.194;27.646;2024-03-17T13:32:54;69.87;;;25.70;;
6027;SDS011;3042;43.194;27.646;2024-03-17T13:35:25;23.77;;;21.30;;
6027;SDS011;3042;43.194;27.646;2024-03-17T13:37:54;34.53;;;21.87;;
6027;SDS011;3042;43.194;27.646;2024-03-17T13:40:25;23.57;;;21.00;;
6027;SDS011;3042;43.194;27.646;2024-03-17T13:42:54;20.83;;;19.13;;
6027;SDS011;3042;43.194;27.646;2024-03-17T13:45:23;25.90;;;22.50;;
6027;SDS011;3042;43.194;27.646;2024-03-17T13:47:56;25.13;;;22.83;;
6027;SDS011;3042;43.194;27.646;2024-03-17T13:50:26;47.17;;;21.40;;
6027;SDS011;3042;43.194;27.646;2024-03-17T13:52:53;19.73;;;18.13;;
6027;SDS011;3042;43.194;27.646;2024-03-17T13:55:21;23.60;;;20.90;;
6027;SDS011;3042;43.194;27.646;2024-03-17T13:57:50;34.87;;;21.63;;
6027;SDS011;3042;43.194;27.646;2024-03-17T14:00:20;28.20;;;22.70;;
6027;SDS011;3042;43.194;27.646;2024-03-17T14:02:47;25.30;;;23.13;;
6027;SDS011;3042;43.194;27.646;2024-03-17T14:05:17;21.37;;;19.50;;
6027;SDS011;3042;43.194;27.646;2024-03-17T14:07:46;22.77;;;20.80;;
6027;SDS011;3042;43.194;27.646;2024-03-17T14:10:15;22.10;;;20.20;;
6027;SDS011;3042;43.194;27.646;2024-03-17T14:12:44;27.43;;;20.70;;
6027;SDS011;3042;43.194;27.646;2024-03-17T14:15:12;42.00;;;21.27;;
6027;SDS011;3042;43.194;27.646;2024-03-17T14:17:41;96.20;;;28.23;;
6027;SDS011;3042;43.194;27.646;2024-03-17T14:20:09;37.77;;;21.17;;
6027;SDS011;3042;43.194;27.646;2024-03-17T14:22:39;23.63;;;20.67;;
6027;SDS011;3042;43.194;27.646;2024-03-17T14:25:08;26.23;;;21.80;;
6027;SDS011;3042;43.194;27.646;2024-03-17T14:27:37;24.23;;;21.70;;
6027;SDS011;3042;43.194;27.646;2024-03-17T14:30:05;52.20;;;22.70;;
6027;SDS011;3042;43.194;27.646;2024-03-17T14:32:33;43.83;;;23.57;;
6027;SDS011;3042;43.194;27.646;2024-03-17T14:35:01;30.70;;;22.27;;
6027;SDS011;3042;43.194;27.646;2024-03-17T14:37:28;110.83;;;33.87;;
6027;SDS011;3042;43.194;27.646;2024-03-17T14:39:55;40.70;;;23.13;;
6027;SDS011;3042;43.194;27.646;2024-03-17T14:42:24;25.20;;;20.47;;
6027;SDS011;3042;43.194;27.646;2024-03-17T14:44:51;24.10;;;22.00;;
6027;SDS011;3042;43.194;27.646;2024-03-17T14:47:19;75.83;;;27.97;;
6027;SDS011;3042;43.194;27.646;2024-03-17T14:49:46;83.13;;;23.97;;